Capitol Logistics 1132


EDDF
Frankfurt Rhein-Main
Frankfurt, DE
EBLG
Liège Airport
Liege, BE

Route Details

Aircraft Information
Primary: Boeing 737-800BCF
Backup: Not Available
Route Data
Distance: 125nm
Sched. Duration: 1h 00m
Avg. Duration: 0h 51m (-49m)
Times Flown: 5
Recm'd Route: Not Available
Planned Altitude: 24,000ft
Origin Wx: EDDF 281150Z 20010KT 170V230 9999 FEW020 05/00 Q1019 R25R/19//95 R25C/19//95 R25L/19//95 R18/19//95 NOSIG
Dest. Wx: EBLG 281150Z 19014KT CAVOK 05/M00 Q1016 NOSIG
Notes:

Financial History
Total Freight: 174,241lbs
Average Load: 34,848lbs/flt
Fuel Used: 25,434lbs
Avg. Fuel Used: 5,087lbs/flt
Fuel Expense: $20,347
Avg. Fuel Expense: $4,069
Avg. Fuel Cost: $0.80/lbs
Total Gross Income: $362,316
Pilot Pay: $1,145
Total Expenses: $39,390
Total Revenue: $301,747
Average Revenue: $72,463.12